createdAt,value
2019-02-09T00:01:00.553Z,7.90
2019-02-09T00:03:57.181Z,7.90
2019-02-09T00:06:42.622Z,7.90
2019-02-09T00:12:44.430Z,7.80
2019-02-09T00:21:51.058Z,7.80
2019-02-09T00:24:27.756Z,7.70
2019-02-09T00:27:12.773Z,7.70
2019-02-09T00:32:49.619Z,7.60
2019-02-09T00:38:39.928Z,7.70
2019-02-09T00:41:22.286Z,7.60
2019-02-09T00:44:11.989Z,7.60
2019-02-09T00:46:54.453Z,7.60
2019-02-09T00:49:44.484Z,7.60
2019-02-09T00:52:26.682Z,7.60
2019-02-09T00:54:57.020Z,7.70
2019-02-09T00:57:46.386Z,7.60
2019-02-09T01:00:37.407Z,7.60
2019-02-09T01:03:19.224Z,7.60
2019-02-09T01:06:08.931Z,7.50
2019-02-09T01:08:51.458Z,7.50
2019-02-09T01:11:22.886Z,7.50
2019-02-09T01:14:12.494Z,7.50
2019-02-09T01:19:50.015Z,7.50
2019-02-09T01:22:39.886Z,7.50
2019-02-09T01:25:22.109Z,7.50
2019-02-09T01:28:12.423Z,7.50
2019-02-09T01:30:53.938Z,7.40
2019-02-09T01:33:43.855Z,7.40
2019-02-09T01:36:27.575Z,7.40
2019-02-09T01:38:57.920Z,7.40
2019-02-09T01:41:47.806Z,7.40
2019-02-09T01:44:30.240Z,7.30
2019-02-09T01:47:19.818Z,7.40
2019-02-09T01:50:01.925Z,7.40
2019-02-09T01:52:51.479Z,7.40
2019-02-09T01:55:33.788Z,7.40
2019-02-09T01:58:04.039Z,7.40
2019-02-09T02:00:53.489Z,7.40
2019-02-09T02:06:43.716Z,7.30
2019-02-09T02:09:13.971Z,7.40
2019-02-09T02:17:48.011Z,7.40
2019-02-09T02:20:37.370Z,7.30
2019-02-09T02:23:19.978Z,7.40
2019-02-09T02:26:03.049Z,7.40
2019-02-09T02:28:52.723Z,7.30
2019-02-09T02:31:34.643Z,7.30
2019-02-09T02:34:43.410Z,7.30
2019-02-09T02:37:25.424Z,7.30
2019-02-09T02:40:15.261Z,7.30
2019-02-09T02:42:57.439Z,7.30
2019-02-09T02:45:47.021Z,7.30
2019-02-09T02:48:29.652Z,7.30
2019-02-09T02:51:19.316Z,7.30
2019-02-09T02:54:01.415Z,7.30
2019-02-09T02:57:10.477Z,7.30
2019-02-09T02:59:53.138Z,7.30
2019-02-09T03:02:42.791Z,7.40
2019-02-09T03:05:24.794Z,7.30
2019-02-09T03:08:14.646Z,7.30
2019-02-09T03:10:57.277Z,7.30
2019-02-09T03:13:46.855Z,7.30
2019-02-09T03:16:29.845Z,7.30
2019-02-09T03:22:20.965Z,7.30
2019-02-09T03:25:12.859Z,7.30
2019-02-09T03:27:54.827Z,7.30
2019-02-09T03:34:12.236Z,7.30
2019-02-09T03:39:57.077Z,7.30
2019-02-09T03:42:28.381Z,7.30
2019-02-09T03:45:36.845Z,7.30
2019-02-09T03:48:18.521Z,7.30
2019-02-09T03:50:48.855Z,7.30
2019-02-09T03:53:38.224Z,7.30
2019-02-09T03:56:29.487Z,7.30
2019-02-09T03:59:11.884Z,7.30
2019-02-09T04:02:21.222Z,7.30
2019-02-09T04:05:04.066Z,7.30
2019-02-09T04:07:53.457Z,7.30
2019-02-09T04:10:43.076Z,7.30
2019-02-09T04:13:32.505Z,7.30
2019-02-09T04:16:14.638Z,7.30
2019-02-09T04:21:52.114Z,7.30
2019-02-09T04:27:30.166Z,7.30
2019-02-09T04:30:00.564Z,7.30
2019-02-09T04:35:44.684Z,7.30
2019-02-09T04:38:26.826Z,7.40
2019-02-09T04:44:03.858Z,7.40
2019-02-09T04:49:40.729Z,7.40
2019-02-09T04:52:49.671Z,7.40
2019-02-09T04:55:31.561Z,7.40
2019-02-09T05:01:13.962Z,7.40
2019-02-09T05:04:01.429Z,7.40
2019-02-09T05:09:51.795Z,7.40
2019-02-09T05:12:41.427Z,7.40
2019-02-09T05:15:23.370Z,7.50
2019-02-09T05:18:12.986Z,7.50
2019-02-09T05:20:55.469Z,7.50
2019-02-09T05:24:04.501Z,7.50
2019-02-09T05:26:53.945Z,7.50
2019-02-09T05:29:40.369Z,7.50
2019-02-09T05:32:22.613Z,7.40
2019-02-09T05:38:13.482Z,7.40
2019-02-09T05:41:03.027Z,7.40
2019-02-09T05:46:27.549Z,7.20
2019-02-09T05:49:10.260Z,7.10
2019-02-09T05:51:59.618Z,7.00
2019-02-09T05:54:41.740Z,6.80
2019-02-09T05:57:31.235Z,6.80
2019-02-09T06:00:14.944Z,6.80
2019-02-09T06:06:05.450Z,6.90
2019-02-09T06:08:35.983Z,6.90
2019-02-09T06:11:06.557Z,7.00
2019-02-09T06:13:56.185Z,6.90
2019-02-09T06:16:26.902Z,6.90
2019-02-09T06:18:57.425Z,7.00
2019-02-09T06:21:47.407Z,7.00
2019-02-09T06:24:37.131Z,7.10
2019-02-09T06:27:07.615Z,7.00
2019-02-09T06:29:50.371Z,6.90
2019-02-09T06:32:40.056Z,6.90
2019-02-09T06:35:22.493Z,7.00
2019-02-09T06:40:59.102Z,7.00
2019-02-09T06:46:49.508Z,6.90
2019-02-09T06:49:31.579Z,6.90
2019-02-09T06:55:09.872Z,6.90
2019-02-09T06:57:59.251Z,6.90
2019-02-09T07:00:41.204Z,7.00
2019-02-09T07:03:49.879Z,7.00
2019-02-09T07:06:31.701Z,7.00
2019-02-09T07:12:09.150Z,7.00
2019-02-09T07:14:58.471Z,7.10
2019-02-09T07:17:40.836Z,7.10
2019-02-09T07:20:30.108Z,7.10
2019-02-09T07:23:12.522Z,7.10
2019-02-09T07:25:54.930Z,7.20
2019-02-09T07:28:37.390Z,7.20
2019-02-09T07:34:14.905Z,7.20
2019-02-09T07:39:34.420Z,7.30
2019-02-09T07:42:23.784Z,7.30
2019-02-09T07:45:06.853Z,7.30
2019-02-09T07:47:56.193Z,7.30
2019-02-09T07:50:38.509Z,7.30
2019-02-09T07:53:27.859Z,7.30
2019-02-09T07:56:09.764Z,7.30
2019-02-09T07:58:59.119Z,7.40
2019-02-09T08:01:41.162Z,7.40
2019-02-09T08:04:30.512Z,7.40
2019-02-09T08:07:12.353Z,7.40
2019-02-09T08:13:04.084Z,7.50
2019-02-09T08:15:53.316Z,7.50
2019-02-09T08:18:35.095Z,7.50
2019-02-09T08:21:24.754Z,7.50
2019-02-09T08:24:07.871Z,7.60
2019-02-09T08:26:51.210Z,7.70
2019-02-09T08:32:28.810Z,7.80
2019-02-09T08:35:18.534Z,7.90
2019-02-09T08:38:00.485Z,7.90
2019-02-09T08:40:50.151Z,7.90
2019-02-09T08:43:31.797Z,7.90
2019-02-09T08:46:40.901Z,7.90
2019-02-09T08:49:23.040Z,8.00
2019-02-09T08:52:12.478Z,7.90
2019-02-09T08:54:54.195Z,7.90
2019-02-09T08:57:24.452Z,7.90
2019-02-09T09:00:16.414Z,8.00
2019-02-09T09:06:22.446Z,8.20
2019-02-09T09:12:17.899Z,8.10
2019-02-09T09:15:11.387Z,8.20
2019-02-09T09:17:53.393Z,8.20
2019-02-09T09:23:47.893Z,8.50
2019-02-09T09:29:38.156Z,8.70
2019-02-09T09:32:28.764Z,8.60
2019-02-09T09:35:11.733Z,8.50
2019-02-09T09:41:01.836Z,8.50
2019-02-09T09:43:51.133Z,8.50
2019-02-09T09:46:32.839Z,8.50
2019-02-09T09:49:24.917Z,8.50
2019-02-09T09:52:11.001Z,8.50
2019-02-09T09:58:09.186Z,8.60
2019-02-09T10:01:02.700Z,8.60
2019-02-09T10:03:48.690Z,8.60
2019-02-09T10:06:43.037Z,8.60
2019-02-09T10:09:29.866Z,8.60
2019-02-09T10:12:23.433Z,8.90
2019-02-09T10:15:10.172Z,8.80
2019-02-09T10:28:22.331Z,8.60
2019-02-09T10:31:15.983Z,8.70
2019-02-09T10:34:09.176Z,8.60
2019-02-09T10:36:57.414Z,8.70
2019-02-09T10:39:44.143Z,8.70
2019-02-09T10:46:04.986Z,8.60
2019-02-09T10:48:51.172Z,8.70
2019-02-09T10:51:37.939Z,8.80
2019-02-09T10:57:41.861Z,8.80
2019-02-09T11:10:50.071Z,8.60
2019-02-09T11:13:37.332Z,8.70
2019-02-09T11:19:58.686Z,8.80
2019-02-09T11:22:51.120Z,9.00
2019-02-09T11:25:40.306Z,9.00
2019-02-09T11:28:26.907Z,8.90
2019-02-09T11:31:13.673Z,9.10
2019-02-09T11:33:50.700Z,9.10
2019-02-09T11:36:44.242Z,9.10
2019-02-09T11:39:30.674Z,9.00
2019-02-09T11:42:16.563Z,9.00
2019-02-09T11:48:12.993Z,9.10
2019-02-09T11:51:22.035Z,9.10
2019-02-09T11:54:04.063Z,9.10
2019-02-09T11:56:53.355Z,9.10
2019-02-09T11:59:40.146Z,9.10
2019-02-09T12:05:20.501Z,9.20
2019-02-09T12:08:09.842Z,9.30
2019-02-09T12:10:52.009Z,9.20
2019-02-09T12:13:41.345Z,9.20
2019-02-09T12:16:11.647Z,9.10
2019-02-09T12:19:00.968Z,9.20
2019-02-09T12:21:43.336Z,9.20
2019-02-09T12:24:29.631Z,9.20
2019-02-09T12:27:12.173Z,9.10
2019-02-09T12:33:02.199Z,9.20
2019-02-09T12:35:51.522Z,9.30
2019-02-09T12:38:33.222Z,9.20
2019-02-09T12:41:22.600Z,9.30
2019-02-09T12:43:52.863Z,9.40
2019-02-09T12:46:42.187Z,9.30
2019-02-09T12:49:25.957Z,9.30
2019-02-09T12:52:15.571Z,9.20
2019-02-09T12:54:47.111Z,9.30
2019-02-09T13:00:39.405Z,9.30
2019-02-09T13:03:31.365Z,9.30
2019-02-09T13:06:12.400Z,9.20
2019-02-09T13:09:01.654Z,9.20
2019-02-09T13:11:31.980Z,9.20
2019-02-09T13:14:21.583Z,9.20
2019-02-09T13:17:04.460Z,9.30
2019-02-09T13:22:43.425Z,9.20
2019-02-09T13:25:25.211Z,9.30
2019-02-09T13:28:07.767Z,9.30
2019-02-09T13:30:51.462Z,9.30
2019-02-09T13:33:40.820Z,9.30
2019-02-09T13:36:23.234Z,9.30
2019-02-09T13:41:48.240Z,9.30
2019-02-09T13:44:38.344Z,9.40
2019-02-09T13:47:28.663Z,9.50
2019-02-09T13:50:11.324Z,9.70
2019-02-09T13:55:48.152Z,9.60
2019-02-09T13:58:38.643Z,9.70
2019-02-09T14:01:21.413Z,9.60
2019-02-09T14:04:11.099Z,9.50
2019-02-09T14:06:53.019Z,9.30
2019-02-09T14:09:42.707Z,9.00
2019-02-09T14:12:24.855Z,8.70
2019-02-09T14:18:12.209Z,8.30
2019-02-09T14:20:54.715Z,8.20
2019-02-09T14:23:44.319Z,8.00
2019-02-09T14:26:26.603Z,7.90
2019-02-09T14:29:10.766Z,7.80
2019-02-09T14:31:41.091Z,7.70
2019-02-09T14:37:19.542Z,7.60
2019-02-09T14:39:50.538Z,7.60
2019-02-09T14:42:21.402Z,7.50
2019-02-09T14:48:04.414Z,7.50
2019-02-09T14:50:54.038Z,7.60
2019-02-09T14:53:37.416Z,7.60
2019-02-09T14:56:27.136Z,7.50
2019-02-09T14:59:09.406Z,7.60
2019-02-09T15:01:59.199Z,7.60
2019-02-09T15:04:41.877Z,7.60
2019-02-09T15:07:31.350Z,7.60
2019-02-09T15:10:16.511Z,7.50
2019-02-09T15:13:07.377Z,7.50
2019-02-09T15:15:51.637Z,7.60
2019-02-09T15:25:02.156Z,7.60
2019-02-09T15:30:36.126Z,7.50
2019-02-09T15:36:28.087Z,7.50
2019-02-09T15:39:17.671Z,7.50
2019-02-09T15:42:00.287Z,7.50
2019-02-09T15:44:49.920Z,7.50
2019-02-09T15:47:34.043Z,7.50
2019-02-09T15:53:24.382Z,7.50
2019-02-09T16:04:21.584Z,7.60
2019-02-09T16:07:11.281Z,7.60
2019-02-09T16:10:20.545Z,7.60
2019-02-09T16:12:51.131Z,7.60
2019-02-09T16:15:24.256Z,7.60
2019-02-09T16:18:14.325Z,7.60
2019-02-09T16:24:05.296Z,7.60
2019-02-09T16:26:48.352Z,7.60
2019-02-09T16:32:48.406Z,7.60
2019-02-09T16:38:39.614Z,7.60
2019-02-09T16:41:28.951Z,7.50
2019-02-09T16:44:11.765Z,7.50
2019-02-09T16:47:03.404Z,7.50
2019-02-09T16:49:45.466Z,7.40
2019-02-09T16:52:34.836Z,7.40
2019-02-09T16:55:17.462Z,7.40
2019-02-09T16:58:07.236Z,7.40
2019-02-09T17:00:49.672Z,7.30
2019-02-09T17:06:40.438Z,7.30
2019-02-09T17:09:30.254Z,7.30
2019-02-09T17:12:12.244Z,7.30
2019-02-09T17:15:01.915Z,7.30
2019-02-09T17:17:43.539Z,7.30
2019-02-09T17:20:35.230Z,7.30
2019-02-09T17:23:17.543Z,7.30
2019-02-09T17:26:07.185Z,7.30
2019-02-09T17:28:50.120Z,7.30
2019-02-09T17:31:39.779Z,7.30
2019-02-09T17:34:23.837Z,7.30
2019-02-09T17:37:13.615Z,7.30
2019-02-09T17:39:55.267Z,7.30
2019-02-09T17:42:25.572Z,7.30
2019-02-09T17:45:18.224Z,7.30
2019-02-09T17:48:07.916Z,7.30
2019-02-09T17:50:49.845Z,7.30
2019-02-09T17:53:39.691Z,7.30
2019-02-09T17:56:22.236Z,7.40
2019-02-09T18:01:59.731Z,7.40
2019-02-09T18:07:36.942Z,7.40
2019-02-09T18:13:14.540Z,7.60
2019-02-09T18:16:05.302Z,7.60
2019-02-09T18:18:47.257Z,7.60
2019-02-09T18:21:36.907Z,7.70
2019-02-09T18:24:19.787Z,7.70
2019-02-09T18:27:09.442Z,7.80
2019-02-09T18:29:53.138Z,7.80
2019-02-09T18:32:42.790Z,7.80
2019-02-09T18:35:25.187Z,7.90
2019-02-09T18:38:14.813Z,7.90
2019-02-09T18:40:56.870Z,7.90
2019-02-09T18:46:33.994Z,7.90
2019-02-09T18:49:23.580Z,7.90
2019-02-09T18:52:06.242Z,7.90
2019-02-09T18:54:55.674Z,7.90
2019-02-09T19:00:37.094Z,8.00
2019-02-09T19:03:26.745Z,8.00
2019-02-09T19:06:08.653Z,8.00
2019-02-09T19:08:58.066Z,7.90
2019-02-09T19:11:40.161Z,7.90
2019-02-09T19:14:32.000Z,8.00
2019-02-09T19:17:15.673Z,8.00
2019-02-09T19:19:58.726Z,8.00
2019-02-09T19:31:20.012Z,7.90
2019-02-09T19:34:09.674Z,8.00
2019-02-09T19:36:59.166Z,8.00
2019-02-09T19:39:40.881Z,8.00
2019-02-09T19:42:23.396Z,8.00
2019-02-09T19:48:16.990Z,8.00
2019-02-09T19:51:06.361Z,8.00
2019-02-09T19:53:48.924Z,8.00
2019-02-09T19:56:38.249Z,8.00
2019-02-09T19:59:20.390Z,8.00
2019-02-09T20:02:23.294Z,8.00
2019-02-09T20:04:53.780Z,8.00
2019-02-09T20:07:43.089Z,8.00
2019-02-09T20:10:26.674Z,8.00
2019-02-09T20:16:19.475Z,8.00
2019-02-09T20:19:09.177Z,8.00
2019-02-09T20:21:39.516Z,8.00
2019-02-09T20:24:28.867Z,8.00
2019-02-09T20:27:12.972Z,8.00
2019-02-09T20:30:02.319Z,8.00
2019-02-09T20:32:44.308Z,7.90
2019-02-09T20:35:33.659Z,8.00
2019-02-09T20:38:15.569Z,8.00
2019-02-09T20:41:07.570Z,8.00
2019-02-09T20:43:50.188Z,8.00
2019-02-09T20:46:39.833Z,8.00
2019-02-09T20:49:22.762Z,8.00
2019-02-09T20:52:14.396Z,8.00
2019-02-09T20:54:56.234Z,8.00
2019-02-09T21:00:46.809Z,8.00
2019-02-09T21:03:36.436Z,8.00
2019-02-09T21:06:19.672Z,7.90
2019-02-09T21:09:09.612Z,7.90
2019-02-09T21:11:52.026Z,7.90
2019-02-09T21:14:41.650Z,8.00
2019-02-09T21:17:23.856Z,7.90
2019-02-09T21:20:15.651Z,7.90
2019-02-09T21:22:58.356Z,7.90
2019-02-09T21:26:07.472Z,7.90
2019-02-09T21:28:49.650Z,7.80
2019-02-09T21:31:39.289Z,7.80
2019-02-09T21:34:22.142Z,7.80
2019-02-09T21:37:11.743Z,7.70
2019-02-09T21:39:54.323Z,7.70
2019-02-09T21:45:47.434Z,7.60
2019-02-09T21:51:39.908Z,7.60
2019-02-09T21:57:30.300Z,7.60
2019-02-09T22:00:25.181Z,7.50
2019-02-09T22:03:08.228Z,7.50
2019-02-09T22:05:57.595Z,7.50
2019-02-09T22:08:39.854Z,7.50
2019-02-09T22:11:29.676Z,7.50
2019-02-09T22:14:11.978Z,7.50
2019-02-09T22:17:03.457Z,7.40
2019-02-09T22:19:45.755Z,7.40
2019-02-09T22:22:35.319Z,7.40
2019-02-09T22:25:18.137Z,7.30
2019-02-09T22:28:07.743Z,7.30
2019-02-09T22:30:52.353Z,7.30
2019-02-09T22:33:41.775Z,7.30
2019-02-09T22:36:26.397Z,7.30
2019-02-09T22:38:56.652Z,7.30
2019-02-09T22:44:41.008Z,7.30
2019-02-09T22:47:23.009Z,7.30
2019-02-09T22:50:33.498Z,7.30
2019-02-09T22:53:15.329Z,7.40
2019-02-09T22:59:07.142Z,7.30
2019-02-09T23:01:56.946Z,7.30
2019-02-09T23:05:00.449Z,7.30
2019-02-09T23:10:50.920Z,7.30
2019-02-09T23:13:40.558Z,7.30
2019-02-09T23:16:22.836Z,7.30
2019-02-09T23:22:17.088Z,7.40
2019-02-09T23:25:07.243Z,7.40
2019-02-09T23:27:49.312Z,7.40
2019-02-09T23:30:31.483Z,7.40
2019-02-09T23:33:23.012Z,7.40
2019-02-09T23:36:05.188Z,7.40
2019-02-09T23:38:47.157Z,7.40
2019-02-09T23:41:36.685Z,7.40
2019-02-09T23:44:07.239Z,7.40
2019-02-09T23:49:58.890Z,7.40
2019-02-09T23:52:48.557Z,7.50
2019-02-09T23:55:31.054Z,7.50
2019-02-09T23:58:21.599Z,7.50
